Time,TemperatureF,DewpointF,PressureIn,WindDirection,WindDirectionDegrees,WindSpeedMPH,WindSpeedGustMPH,Humidity,HourlyPrecipIn,Conditions,Clouds,dailyrainin,SolarRadiationWatts/m^2,SoftwareType,DateUTC
2013-05-19 00:00:00,46.0,27.0,29.91,NNW,344,4.0,-999.0,47,-99.99,,,-99.99,0.050000,,2013-05-19 06:00:00,
2013-05-19 00:52:00,46.0,27.0,29.91,NNW,344,4.0,-999.0,47,-99.99,,,-99.99,0.050000,,2013-05-19 06:52:00,
2013-05-19 02:00:00,48.0,29.0,29.90,WNW,299,7.0,11.0,48,-99.99,,,-99.99,0.100000,,2013-05-19 08:00:00,
2013-05-19 03:00:00,45.0,25.0,29.90,NNW,327,6.0,-999.0,45,-99.99,,,-99.99,0.090000,,2013-05-19 09:00:00,
2013-05-19 03:53:00,45.0,25.0,29.90,NNW,327,6.0,-999.0,45,-99.99,,,-99.99,0.090000,,2013-05-19 09:53:00,
2013-05-19 04:00:00,44.0,26.0,29.90,NW,316,7.0,-999.0,49,-99.99,,,-99.99,0.100000,,2013-05-19 10:00:00,
2013-05-19 04:52:00,44.0,26.0,29.90,NW,316,7.0,-999.0,49,-99.99,,,-99.99,0.100000,,2013-05-19 10:52:00,
2013-05-19 05:00:00,43.0,25.0,29.90,WNW,299,8.0,-999.0,49,-99.99,,,-99.99,0.120000,,2013-05-19 11:00:00,
2013-05-19 05:52:00,43.0,25.0,29.90,WNW,299,8.0,-999.0,49,-99.99,,,-99.99,0.120000,,2013-05-19 11:52:00,
2013-05-19 06:00:00,42.0,25.0,29.90,WNW,301,7.0,-999.0,50,-99.99,,,-99.99,0.470000,,2013-05-19 12:00:00,
2013-05-19 06:52:00,42.0,25.0,29.90,WNW,301,7.0,-999.0,50,-99.99,,,-99.99,0.470000,,2013-05-19 12:52:00,
2013-05-19 07:00:00,44.0,27.0,29.91,WNW,296,7.0,-999.0,51,-99.99,,,-99.99,42.330002,,2013-05-19 13:00:00,
2013-05-19 07:52:00,44.0,27.0,29.91,WNW,296,7.0,-999.0,51,-99.99,,,-99.99,42.330002,,2013-05-19 13:52:00,
2013-05-19 08:00:00,46.0,28.0,29.90,WNW,290,11.0,-999.0,48,-99.99,,,-99.99,248.399994,,2013-05-19 14:00:00,
2013-05-19 08:52:00,46.0,28.0,29.90,WNW,290,11.0,-999.0,48,-99.99,,,-99.99,248.399994,,2013-05-19 14:52:00,
2013-05-19 09:00:00,49.0,29.0,29.92,WNW,285,12.0,-999.0,47,-99.99,,,-99.99,462.299988,,2013-05-19 15:00:00,
2013-05-19 09:53:00,49.0,29.0,29.92,WNW,285,12.0,-999.0,47,-99.99,,,-99.99,462.299988,,2013-05-19 15:53:00,
2013-05-19 10:00:00,51.0,28.0,29.92,West,272,12.0,-999.0,41,-99.99,,,-99.99,684.400024,,2013-05-19 16:00:00,
2013-05-19 10:52:00,51.0,28.0,29.92,West,272,12.0,-999.0,41,-99.99,,,-99.99,684.400024,,2013-05-19 16:52:00,
2013-05-19 11:00:00,53.0,27.0,29.93,West,260,10.0,-999.0,36,-99.99,,,-99.99,717.799988,,2013-05-19 17:00:00,
2013-05-19 11:52:00,53.0,27.0,29.93,West,260,10.0,-999.0,36,-99.99,,,-99.99,717.799988,,2013-05-19 17:52:00,
2013-05-19 12:00:00,53.0,26.0,29.92,West,270,11.0,-999.0,34,-99.99,,,-99.99,898.000000,,2013-05-19 18:00:00,
2013-05-19 12:53:00,53.0,26.0,29.92,West,270,11.0,-999.0,34,-99.99,,,-99.99,898.000000,,2013-05-19 18:53:00,
2013-05-19 13:00:00,52.0,24.0,29.91,West,263,12.0,20.0,34,-99.99,,,-99.99,898.000000,,2013-05-19 19:00:00,
2013-05-19 14:00:00,57.0,24.0,29.90,NW,306,11.0,-999.0,28,-99.99,,,-99.99,969.000000,,2013-05-19 20:00:00,
2013-05-19 14:52:00,57.0,24.0,29.90,NW,306,11.0,-999.0,28,-99.99,,,-99.99,969.000000,,2013-05-19 20:52:00,
2013-05-19 15:00:00,54.0,18.0,29.88,WNW,299,12.0,18.0,24,-99.99,,,-99.99,900.000000,,2013-05-19 21:00:00,
2013-05-19 16:00:00,59.0,21.0,29.88,WSW,256,12.0,-999.0,22,-99.99,,,-99.99,751.599976,,2013-05-19 22:00:00,
2013-05-19 16:53:00,59.0,21.0,29.88,WSW,256,12.0,-999.0,22,-99.99,,,-99.99,751.599976,,2013-05-19 22:53:00,
2013-05-19 17:00:00,57.0,21.0,29.88,West,272,13.0,-999.0,24,-99.99,,,-99.99,612.799988,,2013-05-19 23:00:00,
2013-05-19 17:52:00,57.0,21.0,29.88,West,272,13.0,-999.0,24,-99.99,,,-99.99,612.799988,,2013-05-19 23:52:00,
2013-05-19 18:00:00,56.0,27.0,29.89,West,263,15.0,20.0,33,-99.99,,,-99.99,282.200012,,2013-05-20 00:00:00,
2013-05-19 20:00:00,51.0,28.0,29.88,West,278,11.0,-999.0,40,-99.99,,,-99.99,64.620003,,2013-05-20 02:00:00,
2013-05-19 20:52:00,51.0,28.0,29.88,West,278,11.0,-999.0,40,-99.99,,,-99.99,64.620003,,2013-05-20 02:52:00,
2013-05-19 21:00:00,49.0,28.0,29.87,WNW,290,10.0,-999.0,44,-99.99,,,-99.99,5.590000,,2013-05-20 03:00:00,
2013-05-19 21:52:00,49.0,28.0,29.87,WNW,290,10.0,-999.0,44,-99.99,,,-99.99,5.590000,,2013-05-20 03:52:00,
2013-05-19 22:00:00,49.0,27.0,29.89,WNW,300,7.0,-999.0,42,-99.99,,,-99.99,0.020000,,2013-05-20 04:00:00,
2013-05-19 22:52:00,49.0,27.0,29.89,WNW,300,7.0,-999.0,42,-99.99,,,-99.99,0.020000,,2013-05-20 04:52:00,
2013-05-19 23:00:00,47.0,28.0,29.89,WNW,303,5.0,-999.0,48,-99.99,,,-99.99,0.040000,,2013-05-20 05:00:00,
2013-05-19 23:52:00,47.0,28.0,29.89,WNW,303,5.0,-999.0,48,-99.99,,,-99.99,0.040000,,2013-05-20 05:52:00,